THY3KM LTFM-LTCD
Flight info
| Callsign | THY3KM |
|---|---|
| Flight time | 1h 24m |
| Altitude | 37000 |
| Route | VICEN UT380 ASMAP UL333 LATGA UT363 GURBU UA4 EZN |
| Aircraft | B738/M-SDE2E3FGHIRWXY/LB1 |
Departure
| Time | 2026-05-06 08:23 |
|---|---|
| Airport | İstanbul Airport (LTFM) |
Arrival
| Time | 2026-05-06 09:47 |
|---|---|
| Airport | Erzincan Airport (LTCD) |
| Time | Latitude | Longitude | Altitude | Speed | Heading |
|---|---|---|---|---|---|
| 2026-05-06 07:59 | 41.26810 | 28.75026 | 333 ft | 0 kts | 269° |
| 2026-05-06 08:12 | 41.26810 | 28.75029 | 333 ft | 1 kts | 269° |
| 2026-05-06 08:12 | 41.26811 | 28.75052 | 332 ft | 3 kts | 269° |
| 2026-05-06 08:12 | 41.26811 | 28.75079 | 332 ft | 3 kts | 269° |
| 2026-05-06 08:13 | 41.26811 | 28.75102 | 332 ft | 3 kts | 268° |
| 2026-05-06 08:13 | 41.26814 | 28.75127 | 329 ft | 3 kts | 244° |
| 2026-05-06 08:13 | 41.26825 | 28.75145 | 331 ft | 3 kts | 205° |
| 2026-05-06 08:13 | 41.26844 | 28.75152 | 332 ft | 3 kts | 181° |
| 2026-05-06 08:14 | 41.26862 | 28.75152 | 330 ft | 2 kts | 179° |
| 2026-05-06 08:14 | 41.26867 | 28.75151 | 330 ft | 0 kts | 179° |
| 2026-05-06 08:18 | 41.26860 | 28.75151 | 330 ft | 3 kts | 179° |
| 2026-05-06 08:18 | 41.26806 | 28.75150 | 330 ft | 12 kts | 180° |
| 2026-05-06 08:18 | 41.26713 | 28.75154 | 331 ft | 14 kts | 178° |
| 2026-05-06 08:18 | 41.26633 | 28.75197 | 332 ft | 13 kts | 118° |
| 2026-05-06 08:19 | 41.26574 | 28.75273 | 332 ft | 13 kts | 174° |
| 2026-05-06 08:19 | 41.26486 | 28.75272 | 333 ft | 12 kts | 179° |
| 2026-05-06 08:19 | 41.26402 | 28.75274 | 333 ft | 12 kts | 179° |
| 2026-05-06 08:19 | 41.26319 | 28.75277 | 332 ft | 12 kts | 179° |
| 2026-05-06 08:20 | 41.26252 | 28.75320 | 333 ft | 11 kts | 112° |
| 2026-05-06 08:20 | 41.26247 | 28.75424 | 333 ft | 11 kts | 90° |
| 2026-05-06 08:20 | 41.26250 | 28.75526 | 333 ft | 11 kts | 89° |
| 2026-05-06 08:20 | 41.26250 | 28.75543 | 333 ft | 0 kts | 89° |
| 2026-05-06 08:21 | 41.26250 | 28.75551 | 333 ft | 3 kts | 89° |
| 2026-05-06 08:22 | 41.26253 | 28.75617 | 333 ft | 10 kts | 77° |
| 2026-05-06 08:22 | 41.26304 | 28.75666 | 332 ft | 10 kts | 5° |
| 2026-05-06 08:22 | 41.26510 | 28.75663 | 329 ft | 65 kts | 359° |
| 2026-05-06 08:22 | 41.27208 | 28.75648 | 330 ft | 133 kts | 359° |
| 2026-05-06 08:23 | 41.28306 | 28.75628 | 502 ft | 173 kts | 359° |
| 2026-05-06 08:23 | 41.29521 | 28.75616 | 1245 ft | 178 kts | 1° |
| 2026-05-06 08:23 | 41.30626 | 28.76142 | 2188 ft | 171 kts | 46° |
| 2026-05-06 08:23 | 41.31454 | 28.77304 | 2776 ft | 189 kts | 32° |
| 2026-05-06 08:24 | 41.32676 | 28.78228 | 3118 ft | 214 kts | 29° |
| 2026-05-06 08:24 | 41.34031 | 28.79277 | 3446 ft | 234 kts | 29° |
| 2026-05-06 08:24 | 41.35464 | 28.80370 | 4031 ft | 242 kts | 28° |
| 2026-05-06 08:24 | 41.36912 | 28.81592 | 4763 ft | 251 kts | 41° |
| 2026-05-06 08:25 | 41.37951 | 28.83469 | 5722 ft | 256 kts | 60° |
| 2026-05-06 08:25 | 41.38399 | 28.85820 | 6455 ft | 270 kts | 85° |
| 2026-05-06 08:25 | 41.38427 | 28.88342 | 7257 ft | 275 kts | 86° |
| 2026-05-06 08:25 | 41.38265 | 28.90911 | 8078 ft | 284 kts | 104° |
| 2026-05-06 08:26 | 41.37270 | 28.93197 | 8917 ft | 293 kts | 133° |
| 2026-05-06 08:26 | 41.35527 | 28.94626 | 9722 ft | 302 kts | 163° |
| 2026-05-06 08:26 | 41.33420 | 28.94907 | 10417 ft | 311 kts | 179° |
| 2026-05-06 08:26 | 41.31171 | 28.94886 | 10626 ft | 336 kts | 180° |
| 2026-05-06 08:27 | 41.28749 | 28.94861 | 10819 ft | 360 kts | 180° |
| 2026-05-06 08:27 | 41.27051 | 28.94862 | 10953 ft | 374 kts | 180° |
| 2026-05-06 08:27 | 41.24399 | 28.94876 | 11448 ft | 386 kts | 181° |
| 2026-05-06 08:27 | 41.20821 | 28.94599 | 12434 ft | 391 kts | 185° |
| 2026-05-06 08:28 | 41.18991 | 28.94393 | 12906 ft | 393 kts | 185° |
| 2026-05-06 08:28 | 41.15343 | 28.93974 | 13832 ft | 400 kts | 185° |
| 2026-05-06 08:28 | 41.13454 | 28.93774 | 14241 ft | 404 kts | 185° |
| 2026-05-06 08:28 | 41.10655 | 28.93498 | 14961 ft | 405 kts | 185° |
| 2026-05-06 08:29 | 41.07831 | 28.93238 | 15657 ft | 408 kts | 184° |
| 2026-05-06 08:29 | 41.05017 | 28.93024 | 16261 ft | 412 kts | 179° |
| 2026-05-06 08:29 | 41.02196 | 28.93721 | 16861 ft | 416 kts | 158° |
| 2026-05-06 08:29 | 41.00451 | 28.94853 | 17320 ft | 416 kts | 146° |
| 2026-05-06 08:30 | 40.99941 | 28.95313 | 17465 ft | 416 kts | 142° |
| 2026-05-06 08:30 | 40.97784 | 28.97886 | 18119 ft | 417 kts | 134° |
| 2026-05-06 08:30 | 40.95726 | 29.00621 | 18635 ft | 421 kts | 133° |
| 2026-05-06 08:31 | 40.93668 | 29.03401 | 19140 ft | 425 kts | 133° |
| 2026-05-06 08:31 | 40.91587 | 29.06189 | 19703 ft | 427 kts | 133° |
| 2026-05-06 08:31 | 40.89482 | 29.08964 | 20237 ft | 429 kts | 134° |
| 2026-05-06 08:31 | 40.87340 | 29.11745 | 20762 ft | 432 kts | 134° |
| 2026-05-06 08:32 | 40.85260 | 29.14613 | 21262 ft | 434 kts | 126° |
| 2026-05-06 08:32 | 40.83804 | 29.18100 | 21732 ft | 433 kts | 107° |
| 2026-05-06 08:32 | 40.83025 | 29.21925 | 22254 ft | 433 kts | 102° |
| 2026-05-06 08:32 | 40.82325 | 29.25815 | 22703 ft | 437 kts | 102° |
| 2026-05-06 08:33 | 40.81591 | 29.29723 | 23145 ft | 441 kts | 103° |
| 2026-05-06 08:33 | 40.80822 | 29.33656 | 23594 ft | 444 kts | 103° |
| 2026-05-06 08:33 | 40.80034 | 29.37604 | 23989 ft | 447 kts | 103° |
| 2026-05-06 08:33 | 40.79235 | 29.41585 | 24360 ft | 449 kts | 103° |
| 2026-05-06 08:34 | 40.78437 | 29.45576 | 24753 ft | 452 kts | 103° |
| 2026-05-06 08:34 | 40.76834 | 29.53594 | 25436 ft | 457 kts | 103° |
| 2026-05-06 08:34 | 40.76011 | 29.57713 | 25777 ft | 460 kts | 103° |
| 2026-05-06 08:35 | 40.75200 | 29.61740 | 26106 ft | 462 kts | 103° |
| 2026-05-06 08:35 | 40.74372 | 29.65851 | 26423 ft | 464 kts | 103° |
| 2026-05-06 08:35 | 40.73555 | 29.69978 | 26734 ft | 467 kts | 101° |
| 2026-05-06 08:35 | 40.73163 | 29.74211 | 27013 ft | 467 kts | 90° |
| 2026-05-06 08:36 | 40.73119 | 29.78500 | 27351 ft | 468 kts | 88° |
| 2026-05-06 08:36 | 40.73127 | 29.82796 | 27644 ft | 470 kts | 88° |
| 2026-05-06 08:36 | 40.73117 | 29.87127 | 27924 ft | 473 kts | 88° |
| 2026-05-06 08:36 | 40.73070 | 29.91460 | 28217 ft | 475 kts | 89° |
| 2026-05-06 08:37 | 40.72994 | 29.95827 | 28490 ft | 477 kts | 89° |
| 2026-05-06 08:37 | 40.72904 | 30.00216 | 28769 ft | 480 kts | 89° |
| 2026-05-06 08:37 | 40.72809 | 30.04620 | 29114 ft | 480 kts | 90° |
| 2026-05-06 08:37 | 40.72326 | 30.08973 | 29515 ft | 484 kts | 105° |
| 2026-05-06 08:38 | 40.71188 | 30.13155 | 29996 ft | 483 kts | 109° |
| 2026-05-06 08:38 | 40.70010 | 30.17292 | 30344 ft | 483 kts | 108° |
| 2026-05-06 08:38 | 40.68879 | 30.21411 | 30612 ft | 484 kts | 108° |
| 2026-05-06 08:38 | 40.67760 | 30.25638 | 30932 ft | 483 kts | 107° |
| 2026-05-06 08:39 | 40.66695 | 30.29775 | 31289 ft | 481 kts | 104° |
| 2026-05-06 08:39 | 40.66056 | 30.34072 | 31609 ft | 477 kts | 94° |
| 2026-05-06 08:39 | 40.65717 | 30.38462 | 31933 ft | 476 kts | 92° |
| 2026-05-06 08:39 | 40.65427 | 30.42752 | 32237 ft | 476 kts | 92° |
| 2026-05-06 08:40 | 40.65122 | 30.47085 | 32533 ft | 476 kts | 93° |
| 2026-05-06 08:40 | 40.64791 | 30.51410 | 32861 ft | 475 kts | 93° |
| 2026-05-06 08:40 | 40.64433 | 30.55735 | 33199 ft | 474 kts | 94° |
| 2026-05-06 08:40 | 40.64059 | 30.60045 | 33490 ft | 474 kts | 94° |
| 2026-05-06 08:41 | 40.63684 | 30.64350 | 33768 ft | 474 kts | 94° |
| 2026-05-06 08:41 | 40.63310 | 30.68664 | 34060 ft | 473 kts | 94° |
| 2026-05-06 08:41 | 40.62791 | 30.72944 | 34305 ft | 475 kts | 101° |
| 2026-05-06 08:41 | 40.61956 | 30.77159 | 34526 ft | 476 kts | 103° |
| 2026-05-06 08:42 | 40.61045 | 30.81356 | 34737 ft | 477 kts | 104° |
| 2026-05-06 08:42 | 40.60112 | 30.85558 | 34920 ft | 478 kts | 104° |
| 2026-05-06 08:42 | 40.59187 | 30.89754 | 35148 ft | 477 kts | 103° |
| 2026-05-06 08:42 | 40.58276 | 30.93947 | 35380 ft | 476 kts | 103° |
| 2026-05-06 08:43 | 40.57377 | 30.98144 | 35588 ft | 477 kts | 103° |
| 2026-05-06 08:43 | 40.56480 | 31.02358 | 35760 ft | 478 kts | 103° |
| 2026-05-06 08:43 | 40.55585 | 31.06559 | 35994 ft | 477 kts | 103° |
| 2026-05-06 08:43 | 40.54688 | 31.10756 | 36228 ft | 477 kts | 103° |
| 2026-05-06 08:44 | 40.53791 | 31.14957 | 36420 ft | 477 kts | 103° |
| 2026-05-06 08:44 | 40.52892 | 31.19155 | 36591 ft | 477 kts | 103° |
| 2026-05-06 08:44 | 40.52000 | 31.23305 | 36762 ft | 478 kts | 103° |
| 2026-05-06 08:44 | 40.51092 | 31.27515 | 36944 ft | 478 kts | 103° |
| 2026-05-06 08:45 | 40.50187 | 31.31708 | 37098 ft | 478 kts | 103° |
| 2026-05-06 08:45 | 40.48364 | 31.40160 | 37093 ft | 481 kts | 103° |
| 2026-05-06 08:46 | 40.46543 | 31.48564 | 37101 ft | 477 kts | 103° |
| 2026-05-06 08:46 | 40.44725 | 31.56912 | 37086 ft | 474 kts | 103° |
| 2026-05-06 08:47 | 40.42915 | 31.65212 | 37099 ft | 472 kts | 103° |
| 2026-05-06 08:47 | 40.41103 | 31.73495 | 37094 ft | 472 kts | 104° |
| 2026-05-06 08:48 | 40.39275 | 31.81790 | 37092 ft | 473 kts | 104° |
| 2026-05-06 08:48 | 40.37446 | 31.90098 | 37093 ft | 476 kts | 104° |
| 2026-05-06 08:49 | 40.35584 | 31.98463 | 37097 ft | 479 kts | 104° |
| 2026-05-06 08:49 | 40.33644 | 32.06836 | 37088 ft | 481 kts | 105° |
| 2026-05-06 08:50 | 40.31801 | 32.15274 | 37092 ft | 482 kts | 102° |
| 2026-05-06 08:50 | 40.30171 | 32.23765 | 37082 ft | 484 kts | 102° |
| 2026-05-06 08:51 | 40.28531 | 32.32323 | 37074 ft | 485 kts | 102° |
| 2026-05-06 08:51 | 40.26858 | 32.40871 | 37091 ft | 485 kts | 102° |
| 2026-05-06 08:52 | 40.25156 | 32.49429 | 37084 ft | 486 kts | 102° |
| 2026-05-06 08:52 | 40.23439 | 32.57980 | 37085 ft | 485 kts | 103° |
| 2026-05-06 08:53 | 40.21722 | 32.66516 | 37085 ft | 485 kts | 103° |
| 2026-05-06 08:53 | 40.20007 | 32.75031 | 37098 ft | 484 kts | 103° |
| 2026-05-06 08:54 | 40.18290 | 32.83530 | 37095 ft | 483 kts | 103° |
| 2026-05-06 08:54 | 40.16570 | 32.92025 | 37100 ft | 483 kts | 103° |
| 2026-05-06 08:55 | 40.14969 | 33.00541 | 37090 ft | 480 kts | 96° |
| 2026-05-06 08:55 | 40.14782 | 33.09192 | 37118 ft | 475 kts | 85° |
| 2026-05-06 08:56 | 40.15108 | 33.17809 | 37107 ft | 475 kts | 85° |
| 2026-05-06 08:56 | 40.15398 | 33.26448 | 37095 ft | 476 kts | 85° |
| 2026-05-06 08:57 | 40.15634 | 33.35102 | 37100 ft | 476 kts | 86° |
| 2026-05-06 08:57 | 40.15855 | 33.43761 | 37093 ft | 476 kts | 86° |
| 2026-05-06 08:58 | 40.16068 | 33.52417 | 37095 ft | 477 kts | 86° |
| 2026-05-06 08:58 | 40.16281 | 33.61038 | 37101 ft | 477 kts | 86° |
| 2026-05-06 08:59 | 40.16490 | 33.69725 | 37089 ft | 478 kts | 86° |
| 2026-05-06 08:59 | 40.16689 | 33.78406 | 37100 ft | 478 kts | 86° |
| 2026-05-06 09:00 | 40.16403 | 33.87105 | 37093 ft | 481 kts | 99° |
| 2026-05-06 09:00 | 40.15095 | 33.95694 | 37089 ft | 482 kts | 100° |
| 2026-05-06 09:01 | 40.14027 | 34.04331 | 37092 ft | 481 kts | 97° |
| 2026-05-06 09:01 | 40.13153 | 34.13003 | 37094 ft | 481 kts | 96° |
| 2026-05-06 09:02 | 40.12261 | 34.21672 | 37085 ft | 481 kts | 97° |
| 2026-05-06 09:02 | 40.11326 | 34.30331 | 37092 ft | 481 kts | 97° |
| 2026-05-06 09:03 | 40.10375 | 34.38932 | 37095 ft | 482 kts | 97° |
| 2026-05-06 09:03 | 40.09410 | 34.47591 | 37082 ft | 482 kts | 98° |
| 2026-05-06 09:04 | 40.08439 | 34.56259 | 37079 ft | 482 kts | 98° |
| 2026-05-06 09:04 | 40.07465 | 34.64908 | 37081 ft | 482 kts | 98° |
| 2026-05-06 09:05 | 40.06482 | 34.73573 | 37075 ft | 482 kts | 98° |
| 2026-05-06 09:05 | 40.05495 | 34.82239 | 37076 ft | 482 kts | 98° |
| 2026-05-06 09:06 | 40.04506 | 34.90902 | 37077 ft | 482 kts | 98° |
| 2026-05-06 09:06 | 40.03503 | 34.99569 | 37074 ft | 483 kts | 98° |
| 2026-05-06 09:07 | 40.02494 | 35.08218 | 37071 ft | 483 kts | 98° |
| 2026-05-06 09:07 | 40.01476 | 35.16884 | 37071 ft | 483 kts | 99° |
| 2026-05-06 09:08 | 40.00449 | 35.25547 | 37063 ft | 483 kts | 99° |
| 2026-05-06 09:08 | 39.99420 | 35.34219 | 37064 ft | 483 kts | 99° |
| 2026-05-06 09:09 | 39.98368 | 35.42829 | 37065 ft | 484 kts | 99° |
| 2026-05-06 09:09 | 39.97272 | 35.51483 | 37056 ft | 484 kts | 99° |
| 2026-05-06 09:10 | 39.96174 | 35.60135 | 37063 ft | 484 kts | 99° |
| 2026-05-06 09:10 | 39.95074 | 35.68801 | 37058 ft | 484 kts | 100° |
| 2026-05-06 09:11 | 39.93971 | 35.77457 | 37065 ft | 484 kts | 100° |
| 2026-05-06 09:11 | 39.92863 | 35.86114 | 37069 ft | 484 kts | 100° |
| 2026-05-06 09:12 | 39.91744 | 35.94771 | 37073 ft | 485 kts | 100° |
| 2026-05-06 09:12 | 39.90600 | 36.03448 | 37076 ft | 485 kts | 100° |
| 2026-05-06 09:13 | 39.89454 | 36.12066 | 37073 ft | 486 kts | 101° |
| 2026-05-06 09:13 | 39.88302 | 36.20731 | 37073 ft | 485 kts | 101° |
| 2026-05-06 09:14 | 39.87133 | 36.29392 | 37071 ft | 485 kts | 102° |
| 2026-05-06 09:14 | 39.86045 | 36.36547 | 37074 ft | 485 kts | 102° |
| 2026-05-06 09:15 | 39.84823 | 36.45184 | 37078 ft | 485 kts | 101° |
| 2026-05-06 09:15 | 39.83698 | 36.53856 | 37075 ft | 485 kts | 100° |
| 2026-05-06 09:16 | 39.82556 | 36.62522 | 37083 ft | 485 kts | 101° |
| 2026-05-06 09:16 | 39.81383 | 36.71173 | 37097 ft | 485 kts | 101° |
| 2026-05-06 09:17 | 39.80199 | 36.79808 | 37107 ft | 486 kts | 101° |
| 2026-05-06 09:17 | 39.79114 | 36.88485 | 37089 ft | 487 kts | 95° |
| 2026-05-06 09:18 | 39.79405 | 36.97198 | 37110 ft | 486 kts | 84° |
| 2026-05-06 09:18 | 39.80220 | 37.05925 | 37104 ft | 487 kts | 83° |
| 2026-05-06 09:19 | 39.81006 | 37.14690 | 37093 ft | 487 kts | 84° |
| 2026-05-06 09:19 | 39.81726 | 37.23457 | 37080 ft | 487 kts | 84° |
| 2026-05-06 09:20 | 39.82431 | 37.32218 | 37077 ft | 487 kts | 84° |
| 2026-05-06 09:20 | 39.83129 | 37.40991 | 37074 ft | 487 kts | 85° |
| 2026-05-06 09:21 | 39.83815 | 37.49763 | 37073 ft | 487 kts | 85° |
| 2026-05-06 09:21 | 39.84492 | 37.58545 | 37077 ft | 488 kts | 85° |
| 2026-05-06 09:22 | 39.85154 | 37.67327 | 37076 ft | 487 kts | 85° |
| 2026-05-06 09:22 | 39.85811 | 37.76102 | 37075 ft | 487 kts | 85° |
| 2026-05-06 09:23 | 39.86469 | 37.84878 | 37078 ft | 487 kts | 85° |
| 2026-05-06 09:23 | 39.87117 | 37.93661 | 37076 ft | 487 kts | 85° |
| 2026-05-06 09:24 | 39.87756 | 38.02440 | 37069 ft | 487 kts | 85° |
| 2026-05-06 09:24 | 39.88390 | 38.11212 | 37075 ft | 487 kts | 85° |
| 2026-05-06 09:25 | 39.89014 | 38.19951 | 37069 ft | 487 kts | 85° |
| 2026-05-06 09:25 | 39.89638 | 38.28745 | 37069 ft | 488 kts | 85° |
| 2026-05-06 09:26 | 39.90253 | 38.37561 | 37070 ft | 488 kts | 86° |
| 2026-05-06 09:26 | 39.90861 | 38.46366 | 37041 ft | 489 kts | 86° |
| 2026-05-06 09:26 | 39.91168 | 38.50813 | 36460 ft | 495 kts | 86° |
| 2026-05-06 09:27 | 39.91474 | 38.55262 | 35898 ft | 492 kts | 86° |
| 2026-05-06 09:27 | 39.91775 | 38.59720 | 35229 ft | 492 kts | 86° |
| 2026-05-06 09:27 | 39.92075 | 38.64168 | 34544 ft | 493 kts | 86° |
| 2026-05-06 09:27 | 39.92372 | 38.68618 | 33771 ft | 494 kts | 86° |
| 2026-05-06 09:28 | 39.92667 | 38.73066 | 32973 ft | 494 kts | 86° |
| 2026-05-06 09:28 | 39.92962 | 38.77471 | 32213 ft | 494 kts | 86° |
| 2026-05-06 09:28 | 39.93251 | 38.81925 | 31443 ft | 493 kts | 89° |
| 2026-05-06 09:28 | 39.93189 | 38.86381 | 30652 ft | 491 kts | 99° |
| 2026-05-06 09:29 | 39.92618 | 38.90757 | 29748 ft | 489 kts | 107° |
| 2026-05-06 09:29 | 39.91597 | 38.94969 | 28783 ft | 485 kts | 116° |
| 2026-05-06 09:29 | 39.90177 | 38.98892 | 28221 ft | 475 kts | 118° |
| 2026-05-06 09:29 | 39.88762 | 39.02752 | 27593 ft | 469 kts | 118° |
| 2026-05-06 09:30 | 39.87376 | 39.06581 | 26967 ft | 464 kts | 118° |
| 2026-05-06 09:30 | 39.86023 | 39.10344 | 26381 ft | 457 kts | 118° |
| 2026-05-06 09:30 | 39.84688 | 39.14079 | 25761 ft | 452 kts | 117° |
| 2026-05-06 09:30 | 39.83373 | 39.17771 | 25192 ft | 447 kts | 117° |
| 2026-05-06 09:31 | 39.82079 | 39.21421 | 24610 ft | 442 kts | 117° |
| 2026-05-06 09:31 | 39.80797 | 39.25030 | 24028 ft | 437 kts | 116° |
| 2026-05-06 09:31 | 39.79522 | 39.28608 | 23429 ft | 432 kts | 116° |
| 2026-05-06 09:31 | 39.78283 | 39.32078 | 22789 ft | 427 kts | 116° |
| 2026-05-06 09:32 | 39.77038 | 39.35557 | 22221 ft | 421 kts | 116° |
| 2026-05-06 09:32 | 39.75794 | 39.39029 | 21637 ft | 415 kts | 117° |
| 2026-05-06 09:32 | 39.74595 | 39.42360 | 21080 ft | 411 kts | 117° |
| 2026-05-06 09:32 | 39.73394 | 39.45706 | 20522 ft | 407 kts | 117° |
| 2026-05-06 09:33 | 39.72205 | 39.49010 | 19971 ft | 403 kts | 116° |
| 2026-05-06 09:33 | 39.71021 | 39.52300 | 19427 ft | 399 kts | 116° |
| 2026-05-06 09:33 | 39.69915 | 39.55586 | 18885 ft | 396 kts | 114° |
| 2026-05-06 09:33 | 39.68916 | 39.58909 | 18353 ft | 394 kts | 112° |
| 2026-05-06 09:34 | 39.67957 | 39.62222 | 17743 ft | 391 kts | 112° |
| 2026-05-06 09:34 | 39.67004 | 39.65519 | 17182 ft | 387 kts | 112° |
| 2026-05-06 09:34 | 39.66055 | 39.68772 | 16647 ft | 383 kts | 112° |
| 2026-05-06 09:34 | 39.65111 | 39.71977 | 16115 ft | 380 kts | 112° |
| 2026-05-06 09:35 | 39.64162 | 39.75173 | 15573 ft | 377 kts | 112° |
| 2026-05-06 09:35 | 39.63217 | 39.78341 | 15034 ft | 374 kts | 112° |
| 2026-05-06 09:35 | 39.62282 | 39.81465 | 14526 ft | 371 kts | 112° |
| 2026-05-06 09:35 | 39.61353 | 39.84568 | 14220 ft | 363 kts | 112° |
| 2026-05-06 09:36 | 39.60454 | 39.87570 | 14053 ft | 351 kts | 112° |
| 2026-05-06 09:36 | 39.59586 | 39.90469 | 13896 ft | 340 kts | 112° |
| 2026-05-06 09:36 | 39.58749 | 39.93255 | 13743 ft | 330 kts | 112° |
| 2026-05-06 09:36 | 39.57916 | 39.96028 | 13603 ft | 321 kts | 112° |
| 2026-05-06 09:37 | 39.57128 | 39.98646 | 13467 ft | 312 kts | 113° |
| 2026-05-06 09:37 | 39.56364 | 40.01245 | 13322 ft | 305 kts | 112° |
| 2026-05-06 09:37 | 39.55642 | 40.03790 | 13201 ft | 296 kts | 111° |
| 2026-05-06 09:37 | 39.54942 | 40.06267 | 13069 ft | 290 kts | 111° |
| 2026-05-06 09:38 | 39.54272 | 40.08695 | 12878 ft | 284 kts | 106° |
| 2026-05-06 09:38 | 39.54308 | 40.11217 | 12638 ft | 282 kts | 71° |
| 2026-05-06 09:38 | 39.55431 | 40.13232 | 12492 ft | 276 kts | 35° |
| 2026-05-06 09:38 | 39.57133 | 40.14267 | 12370 ft | 270 kts | 12° |
| 2026-05-06 09:39 | 39.58962 | 40.14230 | 12357 ft | 261 kts | 342° |
| 2026-05-06 09:39 | 39.60543 | 40.13117 | 12342 ft | 260 kts | 315° |
| 2026-05-06 09:39 | 39.61553 | 40.11147 | 12379 ft | 270 kts | 287° |
| 2026-05-06 09:39 | 39.61814 | 40.08675 | 11926 ft | 284 kts | 260° |
| 2026-05-06 09:40 | 39.61203 | 40.06327 | 11983 ft | 272 kts | 243° |
| 2026-05-06 09:40 | 39.60333 | 40.04156 | 11981 ft | 270 kts | 241° |
| 2026-05-06 09:40 | 39.58583 | 39.99764 | 11254 ft | 280 kts | 254° |
| 2026-05-06 09:41 | 39.58457 | 39.97246 | 10885 ft | 284 kts | 276° |
| 2026-05-06 09:41 | 39.58880 | 39.94726 | 10457 ft | 290 kts | 286° |
| 2026-05-06 09:41 | 39.59534 | 39.92236 | 10068 ft | 292 kts | 288° |
| 2026-05-06 09:41 | 39.60209 | 39.89778 | 9944 ft | 284 kts | 289° |
| 2026-05-06 09:42 | 39.60940 | 39.87454 | 9550 ft | 283 kts | 292° |
| 2026-05-06 09:42 | 39.61680 | 39.85121 | 9170 ft | 277 kts | 290° |
| 2026-05-06 09:42 | 39.62369 | 39.82803 | 8770 ft | 273 kts | 289° |
| 2026-05-06 09:42 | 39.63030 | 39.80512 | 8373 ft | 269 kts | 289° |
| 2026-05-06 09:43 | 39.63682 | 39.78248 | 7986 ft | 265 kts | 290° |
| 2026-05-06 09:43 | 39.64319 | 39.76043 | 7619 ft | 257 kts | 290° |
| 2026-05-06 09:43 | 39.64939 | 39.73902 | 7196 ft | 249 kts | 290° |
| 2026-05-06 09:43 | 39.65537 | 39.71840 | 6831 ft | 240 kts | 290° |
| 2026-05-06 09:44 | 39.66111 | 39.69859 | 6512 ft | 229 kts | 290° |
| 2026-05-06 09:44 | 39.66661 | 39.67963 | 6201 ft | 220 kts | 290° |
| 2026-05-06 09:44 | 39.67190 | 39.66143 | 5887 ft | 212 kts | 290° |
| 2026-05-06 09:44 | 39.67694 | 39.64405 | 5582 ft | 199 kts | 290° |
| 2026-05-06 09:45 | 39.68163 | 39.62793 | 5323 ft | 181 kts | 290° |
| 2026-05-06 09:45 | 39.68589 | 39.61330 | 5032 ft | 166 kts | 290° |
| 2026-05-06 09:45 | 39.68981 | 39.59985 | 4818 ft | 154 kts | 290° |
| 2026-05-06 09:45 | 39.69365 | 39.58662 | 4548 ft | 157 kts | 291° |
| 2026-05-06 09:46 | 39.69754 | 39.57324 | 4320 ft | 158 kts | 290° |
| 2026-05-06 09:46 | 39.70118 | 39.56052 | 4068 ft | 150 kts | 289° |
| 2026-05-06 09:46 | 39.70493 | 39.54762 | 3875 ft | 156 kts | 289° |
| 2026-05-06 09:46 | 39.70877 | 39.53459 | 3793 ft | 147 kts | 293° |
| 2026-05-06 09:47 | 39.71188 | 39.52418 | 3794 ft | 103 kts | 290° |
| 2026-05-06 09:47 | 39.71397 | 39.51705 | 3792 ft | 74 kts | 291° |
| 2026-05-06 09:47 | 39.71548 | 39.51192 | 3792 ft | 48 kts | 290° |
| 2026-05-06 09:47 | 39.71658 | 39.51116 | 3791 ft | 7 kts | 19° |
| 2026-05-06 09:48 | 39.71701 | 39.51141 | 3791 ft | 7 kts | 32° |
| 2026-05-06 09:48 | 39.71721 | 39.51191 | 3792 ft | 6 kts | 92° |
| 2026-05-06 09:48 | 39.71706 | 39.51247 | 3793 ft | 6 kts | 109° |
| 2026-05-06 09:48 | 39.71691 | 39.51301 | 3793 ft | 6 kts | 112° |
| 2026-05-06 09:49 | 39.71674 | 39.51353 | 3792 ft | 6 kts | 110° |
| 2026-05-06 09:49 | 39.71659 | 39.51405 | 3792 ft | 6 kts | 110° |
| 2026-05-06 09:49 | 39.71639 | 39.51477 | 3794 ft | 12 kts | 111° |
| 2026-05-06 09:49 | 39.71605 | 39.51592 | 3793 ft | 14 kts | 111° |
| 2026-05-06 09:50 | 39.71570 | 39.51709 | 3792 ft | 14 kts | 109° |
| 2026-05-06 09:50 | 39.71538 | 39.51821 | 3792 ft | 13 kts | 111° |
| 2026-05-06 09:50 | 39.71507 | 39.51928 | 3793 ft | 13 kts | 111° |
| 2026-05-06 09:50 | 39.71477 | 39.52034 | 3792 ft | 12 kts | 102° |
| 2026-05-06 09:51 | 39.71523 | 39.52113 | 3792 ft | 12 kts | 22° |
| 2026-05-06 09:51 | 39.71547 | 39.52124 | 3792 ft | 2 kts | 18° |
| 2026-05-06 09:51 | 39.71570 | 39.52132 | 3792 ft | 5 kts | 16° |
| 2026-05-06 09:51 | 39.71605 | 39.52148 | 3792 ft | 5 kts | 20° |
| 2026-05-06 09:52 | 39.71637 | 39.52164 | 3790 ft | 5 kts | 21° |